Petersburg, Michigan
Current Conditions -  °F | °C
As of 1:55 PM on Sunday 23 Nov 2014 (Local Time) from KDUH Reporting Station
Overcast Overcast  
Wind Chill: 55°   Ceiling: 3100
Heat Index: 55°   Visibility: 10mi
Dew Point: 46°   Wind: 7mph
Humidity: 72%   Direction: 140°SE
Pressure: 29.76"   Gusts: NA
Location:  41.9°N, 83.71°W
Report Text: KDUH 231855Z AUTO 14006KT 10SM OVC031 13/08 A2976 RMK AO2
Loading
Personal Weather Stations






























Interactive Weather Map New forecast layout! Learn more

10-Day Weather Forecast

Advertisements
Track Severe Weather on mobile